sensor_id;sensor_type;location;lat;lon;timestamp;P1;durP1;ratioP1;P2;durP2;ratioP2
45236;SDS011;30973;51.442;3.580;2023-02-26T00:01:36;5.82;;;1.92;;
45236;SDS011;30973;51.442;3.580;2023-02-26T00:04:03;8.57;;;2.00;;
45236;SDS011;30973;51.442;3.580;2023-02-26T00:06:31;7.13;;;1.70;;
45236;SDS011;30973;51.442;3.580;2023-02-26T00:08:58;4.15;;;1.35;;
45236;SDS011;30973;51.442;3.580;2023-02-26T00:11:25;7.95;;;2.28;;
45236;SDS011;30973;51.442;3.580;2023-02-26T00:13:52;7.85;;;1.92;;
45236;SDS011;30973;51.442;3.580;2023-02-26T00:18:45;6.65;;;1.80;;
45236;SDS011;30973;51.442;3.580;2023-02-26T00:21:14;5.32;;;2.35;;
45236;SDS011;30973;51.442;3.580;2023-02-26T00:23:41;8.68;;;1.98;;
45236;SDS011;30973;51.442;3.580;2023-02-26T00:26:08;8.90;;;2.40;;
45236;SDS011;30973;51.442;3.580;2023-02-26T00:28:36;9.05;;;3.20;;
45236;SDS011;30973;51.442;3.580;2023-02-26T00:31:03;7.47;;;2.50;;
45236;SDS011;30973;51.442;3.580;2023-02-26T00:33:30;6.75;;;2.40;;
45236;SDS011;30973;51.442;3.580;2023-02-26T00:36:02;10.25;;;3.30;;
45236;SDS011;30973;51.442;3.580;2023-02-26T00:38:34;8.35;;;3.03;;
45236;SDS011;30973;51.442;3.580;2023-02-26T00:41:01;8.85;;;2.92;;
45236;SDS011;30973;51.442;3.580;2023-02-26T00:43:28;8.75;;;2.45;;
45236;SDS011;30973;51.442;3.580;2023-02-26T00:53:46;8.70;;;2.70;;
45236;SDS011;30973;51.442;3.580;2023-02-26T00:56:15;8.02;;;2.47;;
45236;SDS011;30973;51.442;3.580;2023-02-26T00:58:42;6.55;;;2.03;;
45236;SDS011;30973;51.442;3.580;2023-02-26T01:01:08;9.88;;;3.10;;
45236;SDS011;30973;51.442;3.580;2023-02-26T01:03:35;7.70;;;2.03;;
45236;SDS011;30973;51.442;3.580;2023-02-26T01:06:02;5.95;;;1.88;;
45236;SDS011;30973;51.442;3.580;2023-02-26T01:08:33;9.32;;;2.15;;
45236;SDS011;30973;51.442;3.580;2023-02-26T01:11:04;7.47;;;2.45;;
45236;SDS011;30973;51.442;3.580;2023-02-26T01:13:30;8.13;;;3.60;;
45236;SDS011;30973;51.442;3.580;2023-02-26T01:16:04;9.43;;;1.90;;
45236;SDS011;30973;51.442;3.580;2023-02-26T01:18:43;6.35;;;2.30;;
45236;SDS011;30973;51.442;3.580;2023-02-26T01:21:16;8.95;;;2.03;;
45236;SDS011;30973;51.442;3.580;2023-02-26T01:23:44;9.75;;;2.97;;
45236;SDS011;30973;51.442;3.580;2023-02-26T01:26:17;6.45;;;2.15;;
45236;SDS011;30973;51.442;3.580;2023-02-26T01:28:46;5.68;;;1.80;;
45236;SDS011;30973;51.442;3.580;2023-02-26T01:31:16;5.20;;;1.45;;
45236;SDS011;30973;51.442;3.580;2023-02-26T01:33:46;5.65;;;1.42;;
45236;SDS011;30973;51.442;3.580;2023-02-26T01:36:23;4.80;;;1.60;;
45236;SDS011;30973;51.442;3.580;2023-02-26T01:48:57;5.65;;;1.65;;
45236;SDS011;30973;51.442;3.580;2023-02-26T01:54:09;8.02;;;1.50;;
45236;SDS011;30973;51.442;3.580;2023-02-26T01:56:36;5.80;;;2.65;;
45236;SDS011;30973;51.442;3.580;2023-02-26T01:59:03;5.45;;;1.08;;
45236;SDS011;30973;51.442;3.580;2023-02-26T02:01:32;7.43;;;2.45;;
45236;SDS011;30973;51.442;3.580;2023-02-26T02:03:58;9.90;;;1.20;;
45236;SDS011;30973;51.442;3.580;2023-02-26T02:06:26;5.80;;;1.23;;
45236;SDS011;30973;51.442;3.580;2023-02-26T02:08:53;5.07;;;1.13;;
45236;SDS011;30973;51.442;3.580;2023-02-26T02:11:21;4.50;;;0.93;;
45236;SDS011;30973;51.442;3.580;2023-02-26T02:21:33;6.97;;;1.10;;
45236;SDS011;30973;51.442;3.580;2023-02-26T02:24:11;4.35;;;1.00;;
45236;SDS011;30973;51.442;3.580;2023-02-26T02:42:07;3.38;;;1.58;;
45236;SDS011;30973;51.442;3.580;2023-02-26T02:44:36;8.07;;;1.15;;
45236;SDS011;30973;51.442;3.580;2023-02-26T02:47:05;4.25;;;1.00;;
45236;SDS011;30973;51.442;3.580;2023-02-26T02:49:35;4.57;;;0.90;;
45236;SDS011;30973;51.442;3.580;2023-02-26T02:52:07;2.70;;;0.77;;
45236;SDS011;30973;51.442;3.580;2023-02-26T02:57:16;3.33;;;0.88;;
45236;SDS011;30973;51.442;3.580;2023-02-26T02:59:45;3.92;;;0.80;;
45236;SDS011;30973;51.442;3.580;2023-02-26T03:02:20;2.10;;;0.68;;
45236;SDS011;30973;51.442;3.580;2023-02-26T03:04:47;6.75;;;1.00;;
45236;SDS011;30973;51.442;3.580;2023-02-26T03:07:13;4.80;;;0.80;;
45236;SDS011;30973;51.442;3.580;2023-02-26T03:09:41;5.10;;;1.27;;
45236;SDS011;30973;51.442;3.580;2023-02-26T03:12:10;2.35;;;0.80;;
45236;SDS011;30973;51.442;3.580;2023-02-26T03:14:37;4.93;;;0.88;;
45236;SDS011;30973;51.442;3.580;2023-02-26T03:22:29;5.53;;;1.38;;
45236;SDS011;30973;51.442;3.580;2023-02-26T03:25:07;7.68;;;0.95;;
45236;SDS011;30973;51.442;3.580;2023-02-26T03:27:41;4.03;;;1.13;;
45236;SDS011;30973;51.442;3.580;2023-02-26T03:30:25;4.28;;;1.55;;
45236;SDS011;30973;51.442;3.580;2023-02-26T03:32:58;5.32;;;1.05;;
45236;SDS011;30973;51.442;3.580;2023-02-26T03:37:55;4.75;;;1.08;;
45236;SDS011;30973;51.442;3.580;2023-02-26T03:40:28;4.15;;;0.80;;
45236;SDS011;30973;51.442;3.580;2023-02-26T03:43:00;7.50;;;1.20;;
45236;SDS011;30973;51.442;3.580;2023-02-26T03:45:32;5.30;;;1.00;;
45236;SDS011;30973;51.442;3.580;2023-02-26T03:48:01;3.92;;;0.82;;
45236;SDS011;30973;51.442;3.580;2023-02-26T03:50:37;6.82;;;1.05;;
45236;SDS011;30973;51.442;3.580;2023-02-26T03:53:20;4.78;;;0.88;;
45236;SDS011;30973;51.442;3.580;2023-02-26T03:55:57;7.75;;;1.17;;
45236;SDS011;30973;51.442;3.580;2023-02-26T03:58:25;6.90;;;1.25;;
45236;SDS011;30973;51.442;3.580;2023-02-26T04:01:10;2.65;;;0.98;;
45236;SDS011;30973;51.442;3.580;2023-02-26T04:03:46;4.15;;;1.15;;
45236;SDS011;30973;51.442;3.580;2023-02-26T04:06:14;6.10;;;1.35;;
45236;SDS011;30973;51.442;3.580;2023-02-26T04:08:42;4.65;;;1.17;;
45236;SDS011;30973;51.442;3.580;2023-02-26T04:11:14;4.85;;;1.10;;
45236;SDS011;30973;51.442;3.580;2023-02-26T04:13:43;9.10;;;1.50;;
45236;SDS011;30973;51.442;3.580;2023-02-26T04:16:10;5.53;;;1.23;;
45236;SDS011;30973;51.442;3.580;2023-02-26T04:18:37;5.90;;;1.08;;
45236;SDS011;30973;51.442;3.580;2023-02-26T04:21:05;4.97;;;1.17;;
45236;SDS011;30973;51.442;3.580;2023-02-26T04:23:32;2.88;;;0.80;;
45236;SDS011;30973;51.442;3.580;2023-02-26T04:25:59;5.18;;;1.10;;
45236;SDS011;30973;51.442;3.580;2023-02-26T04:28:27;6.05;;;1.10;;
45236;SDS011;30973;51.442;3.580;2023-02-26T04:30:55;3.75;;;0.90;;
45236;SDS011;30973;51.442;3.580;2023-02-26T04:33:22;3.33;;;0.90;;
45236;SDS011;30973;51.442;3.580;2023-02-26T04:35:49;5.70;;;0.90;;
45236;SDS011;30973;51.442;3.580;2023-02-26T04:38:16;3.88;;;1.00;;
45236;SDS011;30973;51.442;3.580;2023-02-26T04:40:43;5.07;;;0.80;;
45236;SDS011;30973;51.442;3.580;2023-02-26T04:43:12;5.55;;;1.20;;
45236;SDS011;30973;51.442;3.580;2023-02-26T04:45:48;5.10;;;1.17;;
45236;SDS011;30973;51.442;3.580;2023-02-26T04:48:15;5.28;;;0.98;;
45236;SDS011;30973;51.442;3.580;2023-02-26T04:50:43;7.13;;;1.10;;
45236;SDS011;30973;51.442;3.580;2023-02-26T04:53:09;3.95;;;0.90;;
45236;SDS011;30973;51.442;3.580;2023-02-26T04:55:37;4.07;;;1.05;;
45236;SDS011;30973;51.442;3.580;2023-02-26T04:58:06;4.10;;;1.30;;
45236;SDS011;30973;51.442;3.580;2023-02-26T05:00:33;8.38;;;1.30;;
45236;SDS011;30973;51.442;3.580;2023-02-26T05:03:00;5.85;;;1.08;;
45236;SDS011;30973;51.442;3.580;2023-02-26T05:05:27;4.70;;;0.90;;
45236;SDS011;30973;51.442;3.580;2023-02-26T05:07:53;6.05;;;1.17;;
45236;SDS011;30973;51.442;3.580;2023-02-26T05:10:22;2.50;;;0.90;;
45236;SDS011;30973;51.442;3.580;2023-02-26T05:12:50;2.22;;;0.68;;
45236;SDS011;30973;51.442;3.580;2023-02-26T05:15:17;4.38;;;0.93;;
45236;SDS011;30973;51.442;3.580;2023-02-26T05:17:44;7.28;;;1.13;;
45236;SDS011;30973;51.442;3.580;2023-02-26T05:20:11;2.78;;;1.05;;
45236;SDS011;30973;51.442;3.580;2023-02-26T05:22:38;4.07;;;1.05;;
45236;SDS011;30973;51.442;3.580;2023-02-26T05:25:06;5.05;;;0.80;;
45236;SDS011;30973;51.442;3.580;2023-02-26T05:27:33;4.03;;;1.00;;
45236;SDS011;30973;51.442;3.580;2023-02-26T05:30:00;3.78;;;0.90;;
45236;SDS011;30973;51.442;3.580;2023-02-26T05:32:27;5.45;;;1.17;;
45236;SDS011;30973;51.442;3.580;2023-02-26T05:34:55;7.85;;;1.30;;
45236;SDS011;30973;51.442;3.580;2023-02-26T05:37:21;2.55;;;1.00;;
45236;SDS011;30973;51.442;3.580;2023-02-26T05:39:48;9.18;;;1.15;;
45236;SDS011;30973;51.442;3.580;2023-02-26T05:42:15;7.05;;;0.90;;
45236;SDS011;30973;51.442;3.580;2023-02-26T05:44:41;2.50;;;0.80;;
45236;SDS011;30973;51.442;3.580;2023-02-26T05:47:08;4.25;;;1.05;;
45236;SDS011;30973;51.442;3.580;2023-02-26T05:49:35;4.40;;;1.35;;
45236;SDS011;30973;51.442;3.580;2023-02-26T05:52:01;5.03;;;0.90;;
45236;SDS011;30973;51.442;3.580;2023-02-26T05:54:28;2.97;;;0.80;;
45236;SDS011;30973;51.442;3.580;2023-02-26T05:56:55;5.65;;;0.98;;
45236;SDS011;30973;51.442;3.580;2023-02-26T05:59:21;4.85;;;0.85;;
45236;SDS011;30973;51.442;3.580;2023-02-26T06:01:48;2.90;;;1.00;;
45236;SDS011;30973;51.442;3.580;2023-02-26T06:04:15;7.32;;;1.45;;
45236;SDS011;30973;51.442;3.580;2023-02-26T06:06:41;2.58;;;0.85;;
45236;SDS011;30973;51.442;3.580;2023-02-26T06:09:08;4.32;;;1.00;;
45236;SDS011;30973;51.442;3.580;2023-02-26T06:11:34;4.00;;;0.80;;
45236;SDS011;30973;51.442;3.580;2023-02-26T06:14:01;5.10;;;0.70;;
45236;SDS011;30973;51.442;3.580;2023-02-26T06:16:28;4.40;;;0.80;;
45236;SDS011;30973;51.442;3.580;2023-02-26T06:18:55;4.72;;;1.00;;
45236;SDS011;30973;51.442;3.580;2023-02-26T06:21:21;3.85;;;1.25;;
45236;SDS011;30973;51.442;3.580;2023-02-26T06:23:48;5.43;;;1.33;;
45236;SDS011;30973;51.442;3.580;2023-02-26T06:26:15;5.57;;;1.20;;
45236;SDS011;30973;51.442;3.580;2023-02-26T06:28:41;4.82;;;1.20;;
45236;SDS011;30973;51.442;3.580;2023-02-26T06:31:08;5.03;;;0.82;;
45236;SDS011;30973;51.442;3.580;2023-02-26T06:33:35;3.25;;;0.90;;
45236;SDS011;30973;51.442;3.580;2023-02-26T06:36:02;1.83;;;0.60;;
45236;SDS011;30973;51.442;3.580;2023-02-26T06:38:29;3.45;;;1.20;;
45236;SDS011;30973;51.442;3.580;2023-02-26T06:40:55;5.13;;;1.00;;
45236;SDS011;30973;51.442;3.580;2023-02-26T06:43:22;3.45;;;0.68;;
45236;SDS011;30973;51.442;3.580;2023-02-26T06:45:49;3.00;;;0.80;;
45236;SDS011;30973;51.442;3.580;2023-02-26T06:48:16;4.90;;;1.00;;
45236;SDS011;30973;51.442;3.580;2023-02-26T06:50:43;3.67;;;0.70;;
45236;SDS011;30973;51.442;3.580;2023-02-26T06:53:09;3.33;;;0.88;;
45236;SDS011;30973;51.442;3.580;2023-02-26T06:55:40;3.38;;;0.80;;
45236;SDS011;30973;51.442;3.580;2023-02-26T06:58:07;3.70;;;1.00;;
45236;SDS011;30973;51.442;3.580;2023-02-26T07:00:34;3.13;;;0.85;;
45236;SDS011;30973;51.442;3.580;2023-02-26T07:03:02;2.47;;;0.90;;
45236;SDS011;30973;51.442;3.580;2023-02-26T07:05:29;5.43;;;1.10;;
45236;SDS011;30973;51.442;3.580;2023-02-26T07:07:55;9.60;;;1.80;;
45236;SDS011;30973;51.442;3.580;2023-02-26T07:10:22;3.65;;;1.15;;
45236;SDS011;30973;51.442;3.580;2023-02-26T07:12:50;4.63;;;1.10;;
45236;SDS011;30973;51.442;3.580;2023-02-26T07:15:17;5.40;;;1.27;;
45236;SDS011;30973;51.442;3.580;2023-02-26T07:17:43;3.25;;;0.80;;
45236;SDS011;30973;51.442;3.580;2023-02-26T07:20:10;4.80;;;0.95;;
45236;SDS011;30973;51.442;3.580;2023-02-26T07:22:37;6.18;;;1.58;;
45236;SDS011;30973;51.442;3.580;2023-02-26T07:25:04;5.00;;;0.65;;
45236;SDS011;30973;51.442;3.580;2023-02-26T07:27:31;4.68;;;1.30;;
45236;SDS011;30973;51.442;3.580;2023-02-26T07:29:59;5.13;;;1.10;;
45236;SDS011;30973;51.442;3.580;2023-02-26T07:32:25;2.90;;;1.00;;
45236;SDS011;30973;51.442;3.580;2023-02-26T07:34:52;4.25;;;1.23;;
45236;SDS011;30973;51.442;3.580;2023-02-26T07:37:19;3.35;;;1.17;;
45236;SDS011;30973;51.442;3.580;2023-02-26T07:39:45;7.50;;;0.93;;
45236;SDS011;30973;51.442;3.580;2023-02-26T07:42:12;3.97;;;0.90;;
45236;SDS011;30973;51.442;3.580;2023-02-26T07:44:40;4.07;;;1.05;;
45236;SDS011;30973;51.442;3.580;2023-02-26T07:47:07;2.60;;;0.65;;
45236;SDS011;30973;51.442;3.580;2023-02-26T07:49:34;3.92;;;0.98;;
45236;SDS011;30973;51.442;3.580;2023-02-26T07:52:00;3.25;;;1.20;;
45236;SDS011;30973;51.442;3.580;2023-02-26T07:54:27;1.83;;;0.82;;
45236;SDS011;30973;51.442;3.580;2023-02-26T07:56:54;4.40;;;0.90;;
45236;SDS011;30973;51.442;3.580;2023-02-26T07:59:20;4.80;;;0.80;;
45236;SDS011;30973;51.442;3.580;2023-02-26T08:01:47;3.90;;;0.82;;
45236;SDS011;30973;51.442;3.580;2023-02-26T08:04:14;3.65;;;0.90;;
45236;SDS011;30973;51.442;3.580;2023-02-26T08:06:41;3.13;;;0.80;;
45236;SDS011;30973;51.442;3.580;2023-02-26T08:09:07;6.57;;;1.27;;
45236;SDS011;30973;51.442;3.580;2023-02-26T08:11:34;3.80;;;1.05;;
45236;SDS011;30973;51.442;3.580;2023-02-26T08:14:06;6.65;;;1.17;;
45236;SDS011;30973;51.442;3.580;2023-02-26T08:16:33;5.45;;;0.80;;
45236;SDS011;30973;51.442;3.580;2023-02-26T08:18:59;4.55;;;1.30;;
45236;SDS011;30973;51.442;3.580;2023-02-26T08:21:26;6.10;;;1.00;;
45236;SDS011;30973;51.442;3.580;2023-02-26T08:23:53;3.40;;;0.90;;
45236;SDS011;30973;51.442;3.580;2023-02-26T08:26:20;4.28;;;1.10;;
45236;SDS011;30973;51.442;3.580;2023-02-26T08:28:46;4.60;;;0.85;;
45236;SDS011;30973;51.442;3.580;2023-02-26T08:31:13;4.63;;;1.02;;
45236;SDS011;30973;51.442;3.580;2023-02-26T08:33:40;3.95;;;1.23;;
45236;SDS011;30973;51.442;3.580;2023-02-26T08:36:07;4.50;;;0.80;;
45236;SDS011;30973;51.442;3.580;2023-02-26T08:38:34;6.20;;;1.27;;
45236;SDS011;30973;51.442;3.580;2023-02-26T08:41:01;2.25;;;0.77;;
45236;SDS011;30973;51.442;3.580;2023-02-26T08:43:28;4.00;;;1.00;;
45236;SDS011;30973;51.442;3.580;2023-02-26T08:45:55;4.13;;;0.70;;
45236;SDS011;30973;51.442;3.580;2023-02-26T08:48:22;5.20;;;1.02;;
45236;SDS011;30973;51.442;3.580;2023-02-26T08:50:49;4.75;;;0.80;;
45236;SDS011;30973;51.442;3.580;2023-02-26T08:53:16;3.65;;;1.20;;
45236;SDS011;30973;51.442;3.580;2023-02-26T08:55:46;3.25;;;0.85;;
45236;SDS011;30973;51.442;3.580;2023-02-26T08:58:13;2.15;;;0.82;;
45236;SDS011;30973;51.442;3.580;2023-02-26T09:00:39;5.20;;;1.00;;
45236;SDS011;30973;51.442;3.580;2023-02-26T09:03:06;7.00;;;1.40;;
45236;SDS011;30973;51.442;3.580;2023-02-26T09:05:32;2.53;;;0.80;;
45236;SDS011;30973;51.442;3.580;2023-02-26T09:07:59;4.22;;;0.90;;
45236;SDS011;30973;51.442;3.580;2023-02-26T09:10:26;5.07;;;0.90;;
45236;SDS011;30973;51.442;3.580;2023-02-26T09:12:53;3.67;;;1.23;;
45236;SDS011;30973;51.442;3.580;2023-02-26T09:15:19;5.78;;;0.80;;
45236;SDS011;30973;51.442;3.580;2023-02-26T09:17:47;3.45;;;0.70;;
45236;SDS011;30973;51.442;3.580;2023-02-26T09:20:14;2.70;;;0.73;;
45236;SDS011;30973;51.442;3.580;2023-02-26T09:22:41;6.38;;;0.98;;
45236;SDS011;30973;51.442;3.580;2023-02-26T09:25:08;2.28;;;0.70;;
45236;SDS011;30973;51.442;3.580;2023-02-26T09:27:35;5.75;;;1.05;;
45236;SDS011;30973;51.442;3.580;2023-02-26T09:30:03;2.33;;;0.60;;
45236;SDS011;30973;51.442;3.580;2023-02-26T09:32:30;8.68;;;1.33;;
45236;SDS011;30973;51.442;3.580;2023-02-26T09:34:56;5.03;;;0.85;;
45236;SDS011;30973;51.442;3.580;2023-02-26T09:37:23;2.90;;;0.70;;
45236;SDS011;30973;51.442;3.580;2023-02-26T09:39:50;3.15;;;0.73;;
45236;SDS011;30973;51.442;3.580;2023-02-26T09:44:49;6.72;;;0.88;;
45236;SDS011;30973;51.442;3.580;2023-02-26T09:47:24;2.45;;;0.60;;
45236;SDS011;30973;51.442;3.580;2023-02-26T09:49:55;3.38;;;0.70;;
45236;SDS011;30973;51.442;3.580;2023-02-26T09:52:26;3.97;;;0.60;;
45236;SDS011;30973;51.442;3.580;2023-02-26T09:55:26;2.47;;;0.80;;
45236;SDS011;30973;51.442;3.580;2023-02-26T09:57:46;6.20;;;1.00;;
45236;SDS011;30973;51.442;3.580;2023-02-26T10:08:15;20.98;;;3.13;;
45236;SDS011;30973;51.442;3.580;2023-02-26T10:13:34;44.03;;;21.40;;
45236;SDS011;30973;51.442;3.580;2023-02-26T10:15:59;14.30;;;6.15;;
45236;SDS011;30973;51.442;3.580;2023-02-26T10:18:29;1029.53;;;527.35;;
45236;SDS011;30973;51.442;3.580;2023-02-26T10:20:58;293.02;;;174.80;;
45236;SDS011;30973;51.442;3.580;2023-02-26T10:40:02;2.75;;;1.25;;
45236;SDS011;30973;51.442;3.580;2023-02-26T10:42:52;10.35;;;7.28;;
45236;SDS011;30973;51.442;3.580;2023-02-26T10:45:43;2.28;;;1.27;;
45236;SDS011;30973;51.442;3.580;2023-02-26T10:50:52;4.70;;;0.75;;
45236;SDS011;30973;51.442;3.580;2023-02-26T10:53:19;2.83;;;0.88;;
45236;SDS011;30973;51.442;3.580;2023-02-26T10:56:01;8.80;;;0.93;;
45236;SDS011;30973;51.442;3.580;2023-02-26T10:58:29;1.95;;;0.85;;
45236;SDS011;30973;51.442;3.580;2023-02-26T11:00:56;5.32;;;0.68;;
45236;SDS011;30973;51.442;3.580;2023-02-26T11:03:36;4.47;;;0.95;;
45236;SDS011;30973;51.442;3.580;2023-02-26T11:06:07;2.40;;;0.80;;
45236;SDS011;30973;51.442;3.580;2023-02-26T11:08:35;2.08;;;0.65;;
45236;SDS011;30973;51.442;3.580;2023-02-26T11:11:05;2.85;;;0.70;;
45236;SDS011;30973;51.442;3.580;2023-02-26T11:13:33;3.42;;;0.70;;
45236;SDS011;30973;51.442;3.580;2023-02-26T11:16:01;2.63;;;0.75;;
45236;SDS011;30973;51.442;3.580;2023-02-26T11:18:38;7.30;;;1.17;;
45236;SDS011;30973;51.442;3.580;2023-02-26T11:21:05;3.47;;;0.70;;
45236;SDS011;30973;51.442;3.580;2023-02-26T11:23:33;2.67;;;0.70;;
45236;SDS011;30973;51.442;3.580;2023-02-26T11:26:07;6.05;;;0.70;;
45236;SDS011;30973;51.442;3.580;2023-02-26T11:28:35;2.33;;;0.90;;
45236;SDS011;30973;51.442;3.580;2023-02-26T11:31:06;2.95;;;0.90;;
45236;SDS011;30973;51.442;3.580;2023-02-26T11:33:36;4.43;;;0.80;;
45236;SDS011;30973;51.442;3.580;2023-02-26T11:36:05;1.58;;;0.80;;
45236;SDS011;30973;51.442;3.580;2023-02-26T11:38:33;2.20;;;0.70;;
45236;SDS011;30973;51.442;3.580;2023-02-26T11:41:00;2.70;;;0.80;;
45236;SDS011;30973;51.442;3.580;2023-02-26T11:43:33;1.75;;;0.73;;
45236;SDS011;30973;51.442;3.580;2023-02-26T11:46:00;2.03;;;0.60;;
45236;SDS011;30973;51.442;3.580;2023-02-26T11:48:33;2.17;;;0.80;;
45236;SDS011;30973;51.442;3.580;2023-02-26T11:51:04;0.77;;;0.50;;
45236;SDS011;30973;51.442;3.580;2023-02-26T11:53:36;4.60;;;0.70;;
45236;SDS011;30973;51.442;3.580;2023-02-26T11:56:10;3.15;;;1.30;;
45236;SDS011;30973;51.442;3.580;2023-02-26T11:58:38;4.13;;;0.77;;
45236;SDS011;30973;51.442;3.580;2023-02-26T12:01:06;2.40;;;0.60;;
45236;SDS011;30973;51.442;3.580;2023-02-26T12:03:34;1.30;;;0.50;;
45236;SDS011;30973;51.442;3.580;2023-02-26T12:06:01;4.30;;;0.73;;
45236;SDS011;30973;51.442;3.580;2023-02-26T12:08:34;5.68;;;0.70;;
45236;SDS011;30973;51.442;3.580;2023-02-26T12:18:54;2.47;;;0.88;;
45236;SDS011;30973;51.442;3.580;2023-02-26T12:24:09;3.55;;;0.70;;
45236;SDS011;30973;51.442;3.580;2023-02-26T12:29:26;2.17;;;0.70;;
45236;SDS011;30973;51.442;3.580;2023-02-26T12:45:03;2.50;;;0.70;;
45236;SDS011;30973;51.442;3.580;2023-02-26T12:50:11;1.83;;;0.57;;
45236;SDS011;30973;51.442;3.580;2023-02-26T13:13:15;2.30;;;1.05;;
45236;SDS011;30973;51.442;3.580;2023-02-26T13:23:50;3.83;;;0.70;;
45236;SDS011;30973;51.442;3.580;2023-02-26T13:26:17;1.00;;;0.50;;
45236;SDS011;30973;51.442;3.580;2023-02-26T13:28:47;5.25;;;0.70;;
45236;SDS011;30973;51.442;3.580;2023-02-26T13:31:17;2.65;;;0.75;;
45236;SDS011;30973;51.442;3.580;2023-02-26T13:33:44;1.60;;;0.70;;
45236;SDS011;30973;51.442;3.580;2023-02-26T13:36:11;1.77;;;0.65;;
45236;SDS011;30973;51.442;3.580;2023-02-26T13:48:57;28.95;;;17.48;;
45236;SDS011;30973;51.442;3.580;2023-02-26T13:54:00;5.53;;;2.00;;
45236;SDS011;30973;51.442;3.580;2023-02-26T14:01:48;1.90;;;0.80;;
45236;SDS011;30973;51.442;3.580;2023-02-26T14:06:45;3.80;;;0.90;;
45236;SDS011;30973;51.442;3.580;2023-02-26T14:19:24;5.65;;;2.65;;
45236;SDS011;30973;51.442;3.580;2023-02-26T14:21:56;2.70;;;1.00;;
45236;SDS011;30973;51.442;3.580;2023-02-26T14:24:28;4.82;;;1.77;;
45236;SDS011;30973;51.442;3.580;2023-02-26T14:29:56;4.32;;;1.23;;
45236;SDS011;30973;51.442;3.580;2023-02-26T14:34:54;5.00;;;1.40;;
45236;SDS011;30973;51.442;3.580;2023-02-26T14:37:23;3.42;;;0.80;;
45236;SDS011;30973;51.442;3.580;2023-02-26T14:39:58;6.07;;;3.40;;
45236;SDS011;30973;51.442;3.580;2023-02-26T14:45:00;3.85;;;0.70;;
45236;SDS011;30973;51.442;3.580;2023-02-26T14:47:27;3.63;;;0.85;;
45236;SDS011;30973;51.442;3.580;2023-02-26T14:49:54;3.67;;;1.00;;
45236;SDS011;30973;51.442;3.580;2023-02-26T14:52:35;2.38;;;0.73;;
45236;SDS011;30973;51.442;3.580;2023-02-26T14:57:38;3.33;;;0.75;;
45236;SDS011;30973;51.442;3.580;2023-02-26T15:00:16;3.00;;;0.70;;
45236;SDS011;30973;51.442;3.580;2023-02-26T15:03:30;1.67;;;0.60;;
45236;SDS011;30973;51.442;3.580;2023-02-26T15:18:46;3.85;;;0.88;;
45236;SDS011;30973;51.442;3.580;2023-02-26T15:23:46;2.38;;;0.88;;
45236;SDS011;30973;51.442;3.580;2023-02-26T15:26:18;2.42;;;0.70;;
45236;SDS011;30973;51.442;3.580;2023-02-26T15:28:45;3.83;;;0.73;;
45236;SDS011;30973;51.442;3.580;2023-02-26T15:31:12;1.75;;;0.82;;
45236;SDS011;30973;51.442;3.580;2023-02-26T15:33:39;2.92;;;0.90;;
45236;SDS011;30973;51.442;3.580;2023-02-26T15:36:07;4.18;;;1.00;;
45236;SDS011;30973;51.442;3.580;2023-02-26T15:38:39;1.92;;;0.85;;
45236;SDS011;30973;51.442;3.580;2023-02-26T15:41:06;2.33;;;0.65;;
45236;SDS011;30973;51.442;3.580;2023-02-26T15:43:33;2.25;;;1.00;;
45236;SDS011;30973;51.442;3.580;2023-02-26T15:45:59;1.88;;;0.80;;
45236;SDS011;30973;51.442;3.580;2023-02-26T15:48:33;3.97;;;1.60;;
45236;SDS011;30973;51.442;3.580;2023-02-26T15:51:00;2.63;;;0.75;;
45236;SDS011;30973;51.442;3.580;2023-02-26T15:53:29;1.52;;;0.70;;
45236;SDS011;30973;51.442;3.580;2023-02-26T15:55:57;4.18;;;1.73;;
45236;SDS011;30973;51.442;3.580;2023-02-26T15:58:35;8.75;;;3.33;;
45236;SDS011;30973;51.442;3.580;2023-02-26T16:01:03;5.07;;;2.22;;
45236;SDS011;30973;51.442;3.580;2023-02-26T16:03:32;4.35;;;1.50;;
45236;SDS011;30973;51.442;3.580;2023-02-26T16:06:00;6.32;;;1.10;;
45236;SDS011;30973;51.442;3.580;2023-02-26T16:08:27;2.88;;;1.05;;
45236;SDS011;30973;51.442;3.580;2023-02-26T16:10:54;2.53;;;0.80;;
45236;SDS011;30973;51.442;3.580;2023-02-26T16:13:28;62.55;;;57.70;;
45236;SDS011;30973;51.442;3.580;2023-02-26T16:16:04;170.13;;;156.37;;
45236;SDS011;30973;51.442;3.580;2023-02-26T16:20:58;582.60;;;540.13;;
45236;SDS011;30973;51.442;3.580;2023-02-26T16:23:29;1036.70;;;918.60;;
45236;SDS011;30973;51.442;3.580;2023-02-26T16:25:58;1999.90;;;999.90;;
45236;SDS011;30973;51.442;3.580;2023-02-26T16:28:37;1999.90;;;999.90;;
45236;SDS011;30973;51.442;3.580;2023-02-26T16:31:14;1999.90;;;992.42;;
45236;SDS011;30973;51.442;3.580;2023-02-26T16:33:41;227.43;;;171.23;;
45236;SDS011;30973;51.442;3.580;2023-02-26T16:36:15;317.65;;;275.25;;
45236;SDS011;30973;51.442;3.580;2023-02-26T16:38:44;227.07;;;209.45;;
45236;SDS011;30973;51.442;3.580;2023-02-26T16:41:11;62.92;;;50.92;;
45236;SDS011;30973;51.442;3.580;2023-02-26T16:43:49;56.78;;;52.17;;
45236;SDS011;30973;51.442;3.580;2023-02-26T16:46:22;36.22;;;32.30;;
45236;SDS011;30973;51.442;3.580;2023-02-26T16:49:17;8.25;;;5.03;;
45236;SDS011;30973;51.442;3.580;2023-02-26T16:51:39;21.13;;;14.27;;
45236;SDS011;30973;51.442;3.580;2023-02-26T16:54:17;19.10;;;14.32;;
45236;SDS011;30973;51.442;3.580;2023-02-26T16:56:45;10.85;;;8.15;;
45236;SDS011;30973;51.442;3.580;2023-02-26T16:59:21;37.28;;;12.32;;
45236;SDS011;30973;51.442;3.580;2023-02-26T17:04:16;30.38;;;27.40;;
45236;SDS011;30973;51.442;3.580;2023-02-26T17:06:43;7.40;;;3.40;;
45236;SDS011;30973;51.442;3.580;2023-02-26T17:09:45;2.40;;;1.70;;
45236;SDS011;30973;51.442;3.580;2023-02-26T17:12:04;4.00;;;1.80;;
45236;SDS011;30973;51.442;3.580;2023-02-26T17:14:45;4.20;;;1.42;;
45236;SDS011;30973;51.442;3.580;2023-02-26T17:17:12;3.95;;;1.30;;
45236;SDS011;30973;51.442;3.580;2023-02-26T17:19:40;4.53;;;1.45;;
45236;SDS011;30973;51.442;3.580;2023-02-26T17:22:07;6.78;;;1.70;;
45236;SDS011;30973;51.442;3.580;2023-02-26T17:24:37;2.83;;;1.17;;
45236;SDS011;30973;51.442;3.580;2023-02-26T17:27:07;4.10;;;1.40;;
45236;SDS011;30973;51.442;3.580;2023-02-26T17:29:37;5.22;;;1.27;;
45236;SDS011;30973;51.442;3.580;2023-02-26T17:32:04;4.95;;;1.60;;
45236;SDS011;30973;51.442;3.580;2023-02-26T17:34:32;6.88;;;2.05;;
45236;SDS011;30973;51.442;3.580;2023-02-26T17:36:58;3.60;;;1.00;;
45236;SDS011;30973;51.442;3.580;2023-02-26T17:39:30;4.28;;;1.00;;
45236;SDS011;30973;51.442;3.580;2023-02-26T17:41:57;2.05;;;1.08;;
45236;SDS011;30973;51.442;3.580;2023-02-26T17:44:24;5.55;;;2.13;;
45236;SDS011;30973;51.442;3.580;2023-02-26T17:46:51;5.07;;;1.50;;
45236;SDS011;30973;51.442;3.580;2023-02-26T17:49:18;4.35;;;1.65;;
45236;SDS011;30973;51.442;3.580;2023-02-26T17:51:45;3.60;;;2.05;;
45236;SDS011;30973;51.442;3.580;2023-02-26T17:54:11;6.93;;;0.98;;
45236;SDS011;30973;51.442;3.580;2023-02-26T17:56:38;4.32;;;1.90;;
45236;SDS011;30973;51.442;3.580;2023-02-26T17:59:07;3.00;;;1.52;;
45236;SDS011;30973;51.442;3.580;2023-02-26T18:01:34;5.05;;;1.83;;
45236;SDS011;30973;51.442;3.580;2023-02-26T18:04:01;5.28;;;1.55;;
45236;SDS011;30973;51.442;3.580;2023-02-26T18:06:32;3.40;;;1.02;;
45236;SDS011;30973;51.442;3.580;2023-02-26T18:09:00;3.30;;;1.23;;
45236;SDS011;30973;51.442;3.580;2023-02-26T18:11:26;5.25;;;1.25;;
45236;SDS011;30973;51.442;3.580;2023-02-26T18:13:57;4.53;;;1.33;;
45236;SDS011;30973;51.442;3.580;2023-02-26T18:16:29;5.15;;;1.40;;
45236;SDS011;30973;51.442;3.580;2023-02-26T18:18:57;3.58;;;1.30;;
45236;SDS011;30973;51.442;3.580;2023-02-26T18:21:25;2.40;;;1.00;;
45236;SDS011;30973;51.442;3.580;2023-02-26T18:23:53;3.28;;;0.95;;
45236;SDS011;30973;51.442;3.580;2023-02-26T18:26:23;3.90;;;0.90;;